Time;durP1;ratioP1;P1;durP2;ratioP2;P2;SDS_P1;SDS_P2;PMS_P1;PMS_P2;Temp;Humidity;BMP_temperature;BMP_pressure;BME280_temperature;BME280_humidity;BME280_pressure;Samples;Min_cycle;Max_cycle;Signal;HPM_P1;HPM_P2
2021/12/24 00:02:17;;;;;;;3.40;2.77;;;10.50;82.60;;;11.06;55.48;98030.91;4873792;28;119442;-86
2021/12/24 00:04:45;;;;;;;3.80;2.40;;;10.60;82.60;;;11.08;54.92;98018.72;4881443;28;117761;-87
2021/12/24 00:11:01;;;;;;;5.10;2.90;;;10.60;82.50;;;11.09;55.01;98017.56;4894162;28;123606;-88
2021/12/24 00:13:38;;;;;;;5.37;3.30;;;10.60;82.50;;;11.11;55.00;98010.56;4883542;28;118532;-87
2021/12/24 00:16:20;;;;;;;4.40;3.30;;;10.60;82.50;;;11.11;55.23;98005.03;4875923;28;118380;-86
2021/12/24 00:19:25;;;;;;;4.03;2.50;;;10.60;82.40;;;11.12;54.90;98000.31;4884328;28;123769;-87
2021/12/24 00:35:48;;;;;;;4.20;2.70;;;10.70;82.30;;;11.18;55.07;98004.53;4890140;28;120209;-88
2021/12/24 00:38:34;;;;;;;3.23;2.50;;;10.70;82.30;;;11.22;54.92;97999.91;4860887;28;118966;-88
2021/12/24 00:41:21;;;;;;;3.03;2.40;;;10.70;82.30;;;11.23;54.86;97996.00;4879774;28;124245;-87
2021/12/24 00:43:49;;;;;;;3.40;2.80;;;10.70;82.20;;;11.24;54.91;97987.38;4882534;28;124004;-87
2021/12/24 00:46:35;;;;;;;2.53;2.20;;;10.90;82.40;;;11.28;54.49;97984.75;4873151;28;118170;-87
2021/12/24 00:49:02;;;;;;;4.33;2.87;;;10.70;82.20;;;11.27;54.56;97985.91;4887024;28;118497;-89
2021/12/24 00:51:54;;;;;;;5.53;3.10;;;10.80;82.20;;;11.28;54.57;97980.03;4874016;28;124796;-88
2021/12/24 00:57:04;;;;;;;3.80;2.90;;;10.70;82.10;;;11.26;54.55;97978.75;4892882;28;118973;-87
2021/12/24 00:59:30;;;;;;;4.97;2.77;;;10.70;82.10;;;11.27;54.64;97980.38;4862193;28;117444;-88
2021/12/24 01:02:03;;;;;;;4.63;3.00;;;10.70;82.10;;;11.29;54.42;97978.06;4869964;28;123310;-88
2021/12/24 01:04:31;;;;;;;4.63;2.60;;;10.70;82.10;;;11.28;54.28;97979.22;4863537;28;123015;-88
2021/12/24 01:06:58;;;;;;;4.07;2.63;;;10.70;82.10;;;11.30;54.56;97978.88;4890280;28;118985;-88
2021/12/24 01:09:24;;;;;;;6.23;3.20;;;10.70;82.10;;;11.29;54.45;97978.06;4872187;28;117914;-88
2021/12/24 01:11:51;;;;;;;8.20;2.80;;;10.70;82.20;;;11.31;54.37;97983.25;4886577;28;123822;-88
2021/12/24 01:14:20;;;;;;;3.13;2.20;;;11.10;82.60;;;11.31;54.31;97978.56;4873959;28;123077;-89
2021/12/24 01:16:58;;;;;;;3.80;3.03;;;10.70;82.30;;;11.33;54.50;97973.47;4873718;28;119770;-89
2021/12/24 01:19:48;;;;;;;6.80;3.07;;;10.90;82.50;;;11.34;54.50;97991.72;4855926;28;119117;-88
2021/12/24 01:23:10;;;;;;;3.37;2.10;;;10.70;82.30;;;11.32;54.88;97985.69;4878996;28;124080;-88
2021/12/24 01:37:54;;;;;;;5.87;2.90;;;10.70;82.50;;;11.20;54.85;97969.84;4883483;28;123939;-88
2021/12/24 01:42:54;;;;;;;3.57;2.53;;;10.70;82.50;;;11.21;55.08;97976.19;4865306;28;118532;-88
2021/12/24 01:45:35;;;;;;;3.83;2.90;;;10.70;82.60;;;11.25;54.62;97977.13;4866172;28;124128;-88
2021/12/24 01:48:07;;;;;;;3.67;2.53;;;10.70;82.60;;;11.25;54.86;97977.91;4873319;28;122640;-88
2021/12/24 01:50:37;;;;;;;2.67;2.13;;;10.70;82.60;;;11.25;54.90;97961.34;4843929;28;118529;-88
2021/12/24 01:53:06;;;;;;;3.17;2.30;;;10.70;82.60;;;11.25;55.22;97979.88;4863767;28;118787;-88
2021/12/24 01:55:35;;;;;;;4.10;2.63;;;10.70;82.60;;;11.23;54.95;97971.09;4856453;28;123133;-88
2021/12/24 01:58:02;;;;;;;6.20;2.10;;;10.70;82.60;;;11.25;54.91;97968.81;4873107;28;124110;-88
2021/12/24 02:00:41;;;;;;;3.63;1.77;;;10.70;82.60;;;11.26;54.98;97967.69;4872970;28;118369;-88
2021/12/24 02:03:26;;;;;;;3.00;2.23;;;10.70;82.60;;;11.27;55.22;97969.31;4874668;28;117257;-87
2021/12/24 02:06:14;;;;;;;3.20;2.10;;;10.70;82.60;;;11.26;54.46;97956.63;4877599;28;121858;-88
2021/12/24 02:08:41;;;;;;;3.73;2.40;;;10.70;82.60;;;11.24;55.01;97956.16;4875765;28;122675;-88
2021/12/24 02:12:09;;;;;;;3.90;2.70;;;10.70;82.60;;;11.23;54.72;97951.75;4868293;28;120297;-88
2021/12/24 02:14:39;;;;;;;3.60;2.33;;;10.70;82.60;;;11.21;55.11;97954.06;4886942;28;119203;-88
2021/12/24 02:17:38;;;;;;;6.20;2.87;;;10.70;82.60;;;11.23;54.92;97960.06;4891772;28;124066;-88
2021/12/24 02:29:48;;;;;;;3.87;2.60;;;10.70;82.50;;;11.16;55.07;97930.19;4896500;28;123958;-89
2021/12/24 02:32:16;;;;;;;9.63;2.53;;;10.70;82.50;;;11.16;54.89;97934.91;4891265;28;123723;-88
2021/12/24 02:34:47;;;;;;;3.43;2.50;;;10.70;82.60;;;11.18;54.82;97933.44;4893607;28;119128;-87
2021/12/24 02:37:34;;;;;;;3.63;3.10;;;10.70;82.60;;;11.19;54.90;97937.00;4892794;28;118171;-88
2021/12/24 02:40:21;;;;;;;4.20;2.67;;;10.70;82.50;;;11.19;55.21;97928.72;4903279;28;123884;-88
2021/12/24 02:42:52;;;;;;;2.60;2.27;;;10.70;82.50;;;11.21;54.83;97931.94;4862251;28;122717;-86
2021/12/24 02:45:24;;;;;;;3.43;2.60;;;10.70;82.50;;;11.24;54.73;97925.75;4890331;28;119642;-88
2021/12/24 02:54:21;;;;;;;3.20;2.60;;;10.80;82.50;;;11.27;54.85;97902.94;4880848;28;123531;-89
2021/12/24 02:56:52;;;;;;;2.53;2.07;;;10.30;82.00;;;11.31;54.95;97894.75;4870362;28;118324;-88
2021/12/24 02:59:25;;;;;;;3.20;2.67;;;10.80;82.50;;;11.31;54.86;97892.00;4888584;28;119003;-88
2021/12/24 03:01:53;;;;;;;2.37;2.13;;;11.00;82.60;;;11.31;55.06;97889.22;4882033;28;124641;-89
2021/12/24 03:04:39;;;;;;;5.53;2.47;;;10.80;82.40;;;11.32;54.96;97899.16;4891538;28;122639;-88
2021/12/24 03:07:06;;;;;;;3.50;2.57;;;10.80;82.40;;;11.31;54.82;97887.31;4875623;28;120279;-88
2021/12/24 03:10:30;;;;;;;2.17;1.80;;;10.80;82.40;;;11.33;54.91;97889.72;4860761;28;117976;-87
2021/12/24 03:13:37;;;;;;;2.23;2.03;;;10.80;82.30;;;11.32;55.06;97894.44;4888774;28;124310;-88
2021/12/24 03:16:22;;;;;;;2.83;2.23;;;10.80;82.30;;;11.33;54.52;97898.81;4894366;28;123193;-87
2021/12/24 03:18:51;;;;;;;2.73;2.17;;;10.90;82.40;;;11.33;54.73;97907.09;4890345;28;118308;-87
2021/12/24 03:21:34;;;;;;;5.57;2.00;;;10.80;82.30;;;11.33;54.70;97898.81;4890440;28;118188;-87
2021/12/24 03:27:43;;;;;;;2.47;2.23;;;10.90;82.20;;;11.31;54.55;97873.47;4888998;28;124490;-86
2021/12/24 03:30:12;;;;;;;2.40;2.07;;;10.90;82.20;;;11.29;55.11;97884.06;4879454;28;117908;-86
2021/12/24 03:32:58;;;;;;;2.37;2.07;;;10.90;82.20;;;11.32;54.72;97883.38;4875946;28;118084;-86
2021/12/24 03:35:45;;;;;;;4.20;2.20;;;10.90;82.20;;;11.33;54.51;97862.06;4890165;28;122459;-86
2021/12/24 03:41:53;;;;;;;3.90;2.53;;;10.90;82.10;;;11.31;55.00;97843.06;4894753;28;119143;-86
2021/12/24 03:48:13;;;;;;;3.43;2.37;;;10.90;82.10;;;11.34;54.57;97847.91;4876858;28;124660;-87
2021/12/24 03:50:54;;;;;;;2.63;2.10;;;10.80;82.00;;;11.37;54.59;97849.19;4868511;28;122841;-85
2021/12/24 03:57:03;;;;;;;3.50;2.03;;;10.90;82.00;;;11.36;54.31;97850.31;4895334;28;119878;-87
2021/12/24 03:59:31;;;;;;;3.90;2.30;;;10.90;82.00;;;11.35;54.58;97843.97;4884260;28;123972;-87
2021/12/24 04:01:57;;;;;;;2.83;2.17;;;10.90;82.00;;;11.39;54.23;97831.09;4893270;28;122779;-87
2021/12/24 04:04:43;;;;;;;3.33;2.23;;;11.50;82.70;;;11.42;54.36;97832.38;4890552;28;119605;-87
2021/12/24 04:07:29;;;;;;;3.13;2.10;;;10.90;82.00;;;11.40;54.21;97841.00;4867210;28;120215;-87
2021/12/24 04:10:31;;;;;;;3.07;2.17;;;10.90;82.10;;;11.38;54.67;97837.75;4871878;28;123117;-87
2021/12/24 04:13:01;;;;;;;4.47;2.70;;;10.90;82.10;;;11.38;54.45;97843.28;4887573;28;122740;-87
2021/12/24 04:15:29;;;;;;;2.40;1.93;;;10.90;82.10;;;11.39;54.32;97842.16;4886859;28;119278;-86
2021/12/24 04:18:23;;;;;;;2.50;2.23;;;10.90;82.20;;;11.41;54.26;97828.78;4857001;28;118854;-87
2021/12/24 04:26:50;;;;;;;5.10;2.47;;;10.90;82.60;;;11.37;55.08;97835.34;4888895;28;119144;-88
2021/12/24 04:29:17;;;;;;;3.13;1.97;;;10.90;82.60;;;11.37;55.14;97819.56;4892555;28;119782;-87
2021/12/24 04:31:51;;;;;;;2.33;1.90;;;10.90;82.70;;;11.41;55.00;97831.53;4899610;28;123152;-86
2021/12/24 04:34:25;;;;;;;3.40;2.20;;;10.90;82.80;;;11.43;54.81;97823.72;4898343;28;122601;-84
2021/12/24 04:39:43;;;;;;;2.67;2.27;;;10.90;82.90;;;11.43;54.80;97818.19;4912058;28;119569;-85
2021/12/24 04:51:22;;;;;;;4.10;2.20;;;10.90;83.00;;;11.38;55.45;97815.63;4891526;28;118516;-86
2021/12/24 05:03:43;;;;;;;3.00;2.03;;;10.90;83.20;;;11.42;55.31;97815.78;4873423;28;119639;-88
2021/12/24 05:08:59;;;;;;;2.90;2.20;;;10.90;83.20;;;11.47;55.27;97823.81;4845197;29;124816;-87
2021/12/24 05:11:26;;;;;;;5.53;2.20;;;10.90;83.20;;;11.47;55.62;97830.19;4858520;28;119377;-88
2021/12/24 05:14:15;;;;;;;4.50;2.33;;;10.90;83.20;;;11.52;55.42;97825.56;4841358;28;118610;-87
2021/12/24 05:16:48;;;;;;;3.50;2.30;;;11.00;83.40;;;11.53;55.55;97814.19;4870569;28;124619;-87
2021/12/24 05:22:20;;;;;;;5.60;2.10;;;11.00;83.30;;;11.54;55.31;97823.28;4860913;28;119099;-87
2021/12/24 05:25:05;;;;;;;2.50;2.23;;;11.00;83.30;;;11.56;55.04;97823.75;4865181;28;119346;-87
2021/12/24 05:27:55;;;;;;;4.60;1.80;;;11.00;83.20;;;11.56;55.36;97815.47;4858951;28;123494;-88
2021/12/24 05:31:01;;;;;;;4.17;2.70;;;11.00;83.20;;;11.56;55.16;97816.25;4873230;28;124595;-89
2021/12/24 05:37:10;;;;;;;2.70;2.30;;;11.10;83.10;;;11.54;55.04;97820.50;4874536;28;118797;-88
2021/12/24 05:39:37;;;;;;;2.80;2.40;;;11.00;82.90;;;11.56;54.77;97815.47;4857654;28;123796;-88
2021/12/24 05:42:05;;;;;;;4.83;2.50;;;11.00;83.00;;;11.58;55.09;97811.19;4872802;28;124136;-88
2021/12/24 05:45:12;;;;;;;2.60;1.90;;;11.10;83.00;;;11.60;55.06;97808.06;4857364;28;118513;-87
2021/12/24 05:47:38;;;;;;;2.20;1.90;;;11.10;83.00;;;11.61;55.17;97807.75;4867308;28;119110;-87
2021/12/24 05:50:06;;;;;;;3.73;2.50;;;11.10;83.00;;;11.65;54.78;97824.44;4864312;28;124271;-87
2021/12/24 05:52:35;;;;;;;2.60;2.40;;;11.10;83.60;;;11.66;54.79;97799.22;4860851;28;122832;-88
2021/12/24 05:55:05;;;;;;;2.20;1.90;;;11.10;82.90;;;11.70;54.98;97813.16;4876822;28;120670;-87
2021/12/24 05:57:51;;;;;;;2.47;1.90;;;11.10;83.60;;;11.72;54.52;97819.16;4872999;28;119628;-88
2021/12/24 06:00:20;;;;;;;2.70;1.93;;;11.20;82.90;;;11.72;54.61;97813.63;4850315;28;122110;-88
2021/12/24 06:02:49;;;;;;;2.43;2.13;;;11.20;83.00;;;11.74;54.98;97825.16;4863250;28;123880;-88
2021/12/24 06:05:16;;;;;;;3.60;2.23;;;11.20;83.00;;;11.75;54.45;97820.44;4873712;28;119428;-88
2021/12/24 06:08:21;;;;;;;2.60;2.40;;;11.20;82.90;;;11.76;54.46;97820.06;4856414;28;118952;-88
2021/12/24 06:11:07;;;;;;;2.50;2.20;;;11.20;82.90;;;11.75;54.58;97818.47;4873624;28;124067;-88
2021/12/24 06:13:56;;;;;;;1.90;1.70;;;11.20;82.90;;;11.74;54.50;97836.25;4869933;28;123919;-87
2021/12/24 06:17:04;;;;;;;2.23;1.80;;;11.20;83.00;;;11.75;54.98;97839.81;4874987;28;118404;-87
2021/12/24 06:19:32;;;;;;;2.43;2.23;;;11.20;83.10;;;11.74;55.09;97839.00;4853681;29;118249;-87
2021/12/24 06:21:59;;;;;;;2.23;2.03;;;11.20;83.20;;;11.78;54.98;97833.59;4868383;28;124058;-88
2021/12/24 06:24:25;;;;;;;3.93;2.93;;;11.20;83.40;;;11.79;55.34;97841.53;4849748;28;123881;-87
2021/12/24 06:27:10;;;;;;;2.80;2.10;;;11.20;83.60;;;11.78;55.31;97830.81;4870224;28;119355;-89
2021/12/24 06:30:15;;;;;;;2.97;2.47;;;11.20;83.90;;;11.74;55.76;97827.94;4863068;28;117982;-87
2021/12/24 06:33:02;;;;;;;5.03;3.07;;;11.20;84.00;;;11.75;55.86;97826.78;4873142;28;123282;-88
2021/12/24 06:36:08;;;;;;;4.77;3.00;;;11.20;84.20;;;11.73;55.76;97820.78;4870633;28;122830;-88
2021/12/24 06:38:55;;;;;;;3.47;2.83;;;11.20;84.30;;;11.73;56.28;97829.88;4867290;28;119936;-87
2021/12/24 06:45:04;;;;;;;4.47;2.90;;;11.20;84.40;;;11.72;56.16;97838.53;4871926;28;124703;-88
2021/12/24 06:47:32;;;;;;;5.40;2.50;;;11.10;84.30;;;11.77;56.44;97831.94;4872637;28;123367;-88
2021/12/24 06:49:59;;;;;;;3.37;2.40;;;11.30;84.60;;;11.79;56.12;97841.53;4870760;28;120688;-89
2021/12/24 06:52:27;;;;;;;3.67;2.33;;;11.20;84.50;;;11.80;56.10;97834.06;4872623;28;119916;-87
2021/12/24 06:54:54;;;;;;;4.13;2.70;;;11.30;84.50;;;11.82;55.88;97857.47;4872798;28;124082;-88
2021/12/24 06:57:24;;;;;;;4.93;2.53;;;11.30;84.50;;;11.82;56.09;97843.63;4872713;28;123011;-86
2021/12/24 06:59:52;;;;;;;4.90;2.60;;;11.30;84.60;;;11.82;56.47;97824.25;4871998;28;118982;-87
2021/12/24 07:02:18;;;;;;;3.23;2.53;;;11.40;84.60;;;11.83;56.36;97830.59;4876840;28;118285;-86
2021/12/24 07:04:46;;;;;;;3.57;2.37;;;11.40;84.60;;;11.85;56.41;97833.84;4861270;28;122959;-86
2021/12/24 07:07:13;;;;;;;2.90;2.40;;;11.40;84.60;;;11.86;56.57;97839.03;4875416;28;123860;-87
2021/12/24 07:09:42;;;;;;;3.20;2.70;;;11.40;84.60;;;11.87;55.88;97835.09;4873887;28;118997;-88
2021/12/24 07:12:13;;;;;;;4.97;2.90;;;12.80;86.20;;;11.89;56.29;97840.31;4892198;28;118796;-88
2021/12/24 07:14:41;;;;;;;4.20;3.00;;;11.40;84.90;;;11.90;56.56;97836.38;4891473;28;123967;-88
2021/12/24 07:17:27;;;;;;;3.93;2.67;;;11.40;85.00;;;11.91;56.47;97841.56;4869229;28;124275;-88
2021/12/24 07:19:53;;;;;;;4.10;2.97;;;11.50;85.00;;;11.90;56.39;97848.28;4891576;28;119456;-88
2021/12/24 07:22:22;;;;;;;5.23;2.57;;;11.40;84.90;;;11.89;56.18;97838.34;4891599;28;118194;-88
2021/12/24 07:24:48;;;;;;;2.97;2.50;;;11.40;84.80;;;11.89;56.55;97841.09;4874682;28;123138;-88
2021/12/24 07:27:34;;;;;;;5.33;3.30;;;11.40;84.90;;;11.90;56.34;97844.69;4883831;28;122585;-88
2021/12/24 07:30:39;;;;;;;6.67;3.63;;;11.40;84.80;;;11.85;56.42;97840.16;4879103;28;119159;-88
2021/12/24 07:33:46;;;;;;;4.70;2.77;;;11.40;84.90;;;11.80;56.50;97825.75;4880020;28;118194;-88
2021/12/24 07:36:14;;;;;;;3.10;2.33;;;11.40;85.00;;;11.77;56.80;97832.78;4882553;28;123348;-88
2021/12/24 07:38:42;;;;;;;3.60;2.90;;;11.40;85.20;;;11.78;56.94;97839.13;4865225;28;123130;-89
2021/12/24 07:41:09;;;;;;;2.53;2.33;;;11.30;85.20;;;11.78;56.78;97839.13;4893572;28;119661;-87
2021/12/24 07:43:37;;;;;;;3.77;2.37;;;11.40;85.30;;;11.78;57.33;97833.59;4871933;28;119175;-89
2021/12/24 07:47:03;;;;;;;3.60;2.90;;;11.40;85.50;;;11.74;57.01;97822.41;4890456;28;123234;-89
2021/12/24 07:49:37;;;;;;;4.60;2.70;;;11.30;85.40;;;11.73;57.22;97815.22;4886985;28;123913;-89
2021/12/24 07:52:09;;;;;;;2.40;2.20;;;11.30;85.50;;;11.73;57.54;97807.72;4870784;28;118578;-88
2021/12/24 07:54:47;;;;;;;2.30;2.10;;;11.30;85.60;;;11.74;57.45;97833.47;4878119;28;118276;-89
2021/12/24 08:00:54;;;;;;;2.50;2.30;;;11.30;85.80;;;11.72;57.27;97836.56;4882360;28;124510;-89
2021/12/24 08:03:26;;;;;;;3.43;2.60;;;11.30;85.80;;;11.75;57.24;97846.16;4885063;28;118634;-88
2021/12/24 08:05:53;;;;;;;2.50;2.30;;;11.30;85.90;;;11.77;57.47;97843.84;4885996;28;118074;-87
2021/12/24 08:08:19;;;;;;;4.40;3.13;;;11.40;86.00;;;11.77;57.42;97838.31;4882827;28;124170;-87
2021/12/24 08:11:04;;;;;;;2.80;2.50;;;11.30;86.00;;;11.79;57.49;97835.19;4886547;28;123816;-88
2021/12/24 08:13:32;;;;;;;6.30;2.30;;;11.30;86.00;;;11.77;57.17;97837.47;4875712;28;119046;-88
2021/12/24 08:16:00;;;;;;;3.07;2.60;;;11.30;86.00;;;11.77;57.14;97832.78;4885381;28;118852;-87
2021/12/24 08:18:27;;;;;;;3.10;2.23;;;11.30;86.00;;;11.79;57.47;97829.66;4864117;28;123229;-87
2021/12/24 08:21:14;;;;;;;3.60;2.30;;;11.30;86.10;;;11.79;57.11;97836.00;4887654;28;123276;-88
2021/12/24 08:23:46;;;;;;;5.43;2.97;;;11.30;86.20;;;11.76;57.57;97842.22;4889923;28;120246;-88
2021/12/24 08:26:17;;;;;;;4.37;3.07;;;11.30;86.30;;;11.73;57.36;97845.66;4873900;28;118932;-87
2021/12/24 08:29:02;;;;;;;5.20;3.00;;;11.20;86.10;;;11.71;57.29;97845.19;4889968;28;124727;-89
2021/12/24 08:31:31;;;;;;;6.20;2.30;;;11.20;86.20;;;11.68;57.55;97840.34;4887902;28;124177;-88
2021/12/24 08:33:58;;;;;;;3.30;2.50;;;11.20;86.40;;;11.67;57.76;97830.44;4873949;28;118943;-88
2021/12/24 08:36:26;;;;;;;4.50;2.63;;;11.20;86.40;;;11.67;57.82;97841.53;4873323;28;120000;-89
2021/12/24 08:38:53;;;;;;;3.90;2.83;;;11.20;86.40;;;11.65;57.89;97839.09;4869258;28;124344;-89
2021/12/24 08:41:19;;;;;;;4.70;2.50;;;11.20;86.40;;;11.66;57.63;97853.72;4884297;28;123129;-87
2021/12/24 08:44:05;;;;;;;3.30;2.77;;;11.20;87.20;;;11.61;57.73;97840.94;4885745;28;119237;-89
2021/12/24 08:46:51;;;;;;;4.43;2.90;;;11.20;86.70;;;11.59;57.76;97831.38;4869997;28;118776;-88
2021/12/24 08:49:20;;;;;;;4.87;2.83;;;11.10;86.80;;;11.55;57.98;97833.97;4882891;28;123252;-88
2021/12/24 08:51:48;;;;;;;4.00;3.30;;;11.10;86.80;;;11.54;58.36;97842.66;4868082;28;123796;-88
2021/12/24 08:54:54;;;;;;;3.10;2.50;;;11.10;86.90;;;11.54;58.65;97839.88;4870563;28;119821;-88
2021/12/24 08:57:21;;;;;;;7.13;2.30;;;11.10;87.10;;;11.53;58.43;97843.81;4871542;28;117900;-88
2021/12/24 08:59:47;;;;;;;4.10;2.80;;;11.20;87.20;;;11.53;58.42;97841.84;4875643;28;123370;-88
2021/12/24 09:02:14;;;;;;;3.43;2.53;;;11.10;87.30;;;11.53;58.48;97849.34;4884691;28;124754;-88
2021/12/24 09:04:40;;;;;;;4.37;2.33;;;11.10;87.30;;;11.55;58.63;97838.72;4868168;28;119307;-87
2021/12/24 09:07:08;;;;;;;5.23;2.67;;;11.10;87.40;;;11.54;58.75;97832.38;4846260;28;118218;-86
2021/12/24 09:09:35;;;;;;;3.77;2.33;;;11.10;87.50;;;11.55;58.60;97841.47;4867566;28;125157;-87
2021/12/24 09:12:02;;;;;;;3.30;2.50;;;11.10;87.50;;;11.54;59.17;97846.22;4843475;29;124905;-88
2021/12/24 09:14:29;;;;;;;3.00;2.30;;;11.10;87.70;;;11.55;58.73;97836.75;4843790;28;118813;-87
2021/12/24 09:17:00;;;;;;;5.20;2.70;;;11.10;87.80;;;11.55;59.04;97838.72;4871079;28;119306;-87
2021/12/24 09:20:05;;;;;;;3.87;3.00;;;11.10;87.80;;;11.53;58.88;97843.81;4866426;28;123320;-87
2021/12/24 09:22:35;;;;;;;2.40;2.20;;;11.10;87.90;;;11.51;59.33;97838.59;4849751;28;123588;-87
2021/12/24 09:25:01;;;;;;;2.53;2.33;;;11.10;88.00;;;11.52;59.27;97828.34;4854824;28;120299;-87
2021/12/24 09:27:46;;;;;;;3.53;2.57;;;11.10;88.00;;;11.50;58.97;97829.50;4868442;28;120062;-88
2021/12/24 09:30:19;;;;;;;3.80;2.27;;;11.10;88.10;;;11.50;59.32;97832.28;4873996;28;123216;-87
2021/12/24 09:32:49;;;;;;;3.57;2.67;;;11.10;88.40;;;11.49;59.75;97833.41;4876162;28;123551;-87
2021/12/24 09:35:19;;;;;;;3.17;2.87;;;11.10;88.60;;;11.48;59.96;97842.06;4873850;28;119426;-87
2021/12/24 09:38:25;;;;;;;4.17;2.90;;;11.10;89.00;;;11.46;60.12;97839.63;4853912;28;118288;-88
2021/12/24 09:44:33;;;;;;;3.10;2.63;;;11.00;89.50;;;11.39;60.85;97822.78;4866364;28;124399;-88
2021/12/24 09:47:22;;;;;;;2.87;2.40;;;11.10;89.80;;;11.41;60.74;97820.47;4869714;28;119213;-87
2021/12/24 09:50:23;;;;;;;2.93;2.73;;;11.00;90.00;;;11.40;60.76;97813.34;4854317;28;118235;-87
2021/12/24 09:52:51;;;;;;;4.07;3.00;;;11.00;90.00;;;11.39;61.32;97822.78;4867643;28;123176;-87
2021/12/24 09:55:25;;;;;;;3.60;2.83;;;11.00;90.10;;;11.38;60.72;97818.41;4869989;28;123807;-88
2021/12/24 09:57:53;;;;;;;3.30;2.60;;;11.00;90.20;;;11.36;61.15;97817.91;4867356;28;119338;-89
2021/12/24 10:00:24;;;;;;;5.07;2.67;;;10.90;90.20;;;11.37;61.07;97813.22;4862324;28;118328;-86
2021/12/24 10:02:55;;;;;;;2.60;2.33;;;10.90;90.30;;;11.35;61.44;97815.50;4876266;28;124124;-85
2021/12/24 10:05:29;;;;;;;2.40;2.20;;;10.90;90.30;;;11.34;61.63;97814.72;4887397;28;123077;-88
2021/12/24 10:08:09;;;;;;;3.80;2.63;;;10.90;90.40;;;11.34;61.61;97813.88;4891899;28;119366;-87
2021/12/24 10:10:43;;;;;;;6.53;2.47;;;10.90;90.60;;;11.32;62.13;97817.00;4875233;28;118640;-88
2021/12/24 10:13:43;;;;;;;6.03;3.03;;;10.90;90.70;;;11.29;61.76;97823.22;4879818;28;123598;-88
2021/12/24 10:16:21;;;;;;;3.73;2.97;;;10.90;90.70;;;11.30;62.33;97818.50;4891689;28;123705;-89
2021/12/24 10:18:53;;;;;;;6.13;2.43;;;10.90;90.70;;;11.28;62.20;97821.59;4883451;28;120215;-88
2021/12/24 10:21:29;;;;;;;4.53;3.00;;;10.90;90.70;;;11.28;62.04;97818.81;4884457;28;119976;-87
2021/12/24 10:24:10;;;;;;;3.57;2.67;;;10.90;90.70;;;11.26;62.12;97824.72;4875756;28;123284;-87
2021/12/24 10:26:51;;;;;;;3.20;2.70;;;10.90;90.80;;;11.25;62.05;97817.53;4886125;28;123564;-89
2021/12/24 10:29:26;;;;;;;4.40;2.57;;;10.90;90.90;;;11.25;62.23;97814.78;4871737;28;119241;-88
2021/12/24 10:32:18;;;;;;;3.67;2.23;;;10.30;90.60;;;11.27;62.37;97806.16;4889416;28;117174;-87
2021/12/24 10:34:46;;;;;;;7.30;3.30;;;10.90;90.90;;;11.24;62.55;97795.78;4885358;28;124046;-87
2021/12/24 10:37:24;;;;;;;6.33;2.83;;;10.80;90.90;;;11.26;62.16;97787.97;4879188;28;122679;-87
2021/12/24 10:40:29;;;;;;;3.77;2.83;;;10.80;90.90;;;11.24;62.42;97781.97;4875865;28;119551;-88
2021/12/24 10:43:28;;;;;;;3.30;2.40;;;10.80;90.90;;;11.24;62.07;97787.50;4882884;28;118909;-88
2021/12/24 10:46:15;;;;;;;3.37;3.03;;;10.80;90.90;;;11.25;62.29;97794.63;4873831;28;123304;-88
2021/12/24 10:49:16;;;;;;;3.27;2.47;;;10.90;90.90;;;11.26;62.25;97779.66;4871502;28;123171;-88
2021/12/24 10:52:12;;;;;;;2.20;2.00;;;10.90;91.00;;;11.25;62.09;97784.38;4884052;28;119619;-87
2021/12/24 10:55:18;;;;;;;4.30;2.87;;;10.80;90.90;;;11.26;62.50;97765.84;4877001;28;118280;-88
2021/12/24 10:58:42;;;;;;;2.43;2.20;;;10.90;91.00;;;11.26;62.31;97763.09;4878655;28;124103;-88
2021/12/24 11:01:29;;;;;;;6.90;3.47;;;10.90;91.00;;;11.28;62.29;97763.53;4891435;28;123869;-87
2021/12/24 11:04:33;;;;;;;2.33;2.00;;;10.90;91.00;;;11.29;62.00;97762.38;4893328;28;119538;-88
2021/12/24 11:07:01;;;;;;;4.47;2.63;;;10.90;91.00;;;11.30;62.13;97757.66;4867703;28;118210;-87
2021/12/24 11:09:29;;;;;;;2.70;1.97;;;10.90;91.00;;;11.30;61.94;97752.94;4889833;28;124054;-87
2021/12/24 11:11:58;;;;;;;3.00;2.23;;;10.90;91.00;;;11.32;62.01;97756.16;4877962;28;122412;-87
2021/12/24 11:14:46;;;;;;;3.13;2.43;;;10.90;91.00;;;11.33;62.02;97757.78;4891659;28;120235;-86
2021/12/24 11:17:51;;;;;;;5.33;2.40;;;10.90;91.10;;;11.34;62.26;97758.56;4885852;28;119959;-87
2021/12/24 11:20:57;;;;;;;4.53;2.47;;;10.90;91.10;;;11.31;62.38;97762.88;4884062;28;123934;-89
2021/12/24 11:23:29;;;;;;;3.90;2.07;;;10.90;91.00;;;11.31;62.41;97760.09;4877845;28;123925;-88
2021/12/24 11:29:37;;;;;;;2.60;2.40;;;10.90;91.10;;;11.30;62.56;97750.16;4894598;28;119569;-87
2021/12/24 11:32:41;;;;;;;2.13;1.93;;;10.90;91.10;;;11.31;62.38;97742.66;4876057;28;124045;-88
2021/12/24 11:35:08;;;;;;;4.47;2.23;;;10.90;91.10;;;11.32;62.30;97747.88;4873541;28;123848;-87
2021/12/24 11:37:38;;;;;;;2.80;1.93;;;10.90;91.10;;;11.34;62.53;97751.09;4891737;28;119654;-87
2021/12/24 11:40:05;;;;;;;2.43;2.23;;;10.90;91.10;;;11.37;62.30;97752.38;4887650;28;118007;-89
2021/12/24 11:42:39;;;;;;;2.00;1.63;;;10.90;91.10;;;11.37;62.15;97742.13;4889664;28;123881;-89
2021/12/24 11:45:28;;;;;;;3.40;2.07;;;10.90;91.10;;;11.38;62.39;97743.72;4857593;28;123868;-87
2021/12/24 11:47:56;;;;;;;4.47;2.47;;;10.90;91.20;;;11.40;62.54;97737.88;4891655;28;120375;-87
2021/12/24 11:51:22;;;;;;;3.43;1.83;;;10.90;91.10;;;11.41;62.41;97737.50;4858308;28;118814;-86
2021/12/24 11:53:52;;;;;;;2.97;1.63;;;11.00;91.20;;;11.42;62.08;97750.19;4893092;28;124446;-88
2021/12/24 11:56:56;;;;;;;1.70;1.50;;;11.10;91.30;;;11.43;62.21;97734.41;4859314;28;123652;-87
2021/12/24 11:59:38;;;;;;;3.93;1.97;;;11.00;91.30;;;11.46;62.37;97734.50;4856323;28;117288;-88
2021/12/24 12:02:40;;;;;;;2.27;1.87;;;11.00;91.30;;;11.47;62.25;97733.38;4851037;28;118173;-87
2021/12/24 12:05:17;;;;;;;2.73;1.60;;;11.00;91.30;;;11.49;62.09;97722.75;4855169;28;123193;-88
2021/12/24 12:07:45;;;;;;;1.87;1.50;;;11.00;91.30;;;11.52;62.62;97714.94;4866320;28;123660;-88
2021/12/24 12:10:59;;;;;;;1.73;1.63;;;11.00;91.30;;;11.55;62.84;97714.22;4844717;28;119528;-88
2021/12/24 12:17:08;;;;;;;2.00;1.50;;;11.10;91.40;;;11.59;62.63;97701.34;4874906;28;123826;-87
2021/12/24 12:25:46;;;;;;;2.17;1.40;;;11.20;91.40;;;11.64;62.60;97698.34;4862884;28;119273;-88
2021/12/24 12:28:32;;;;;;;3.47;1.63;;;11.20;91.40;;;11.68;62.27;97688.19;4874798;28;123020;-88
2021/12/24 12:31:00;;;;;;;2.73;1.60;;;11.20;91.40;;;11.71;62.19;97690.25;4870130;28;123490;-88
2021/12/24 12:33:32;;;;;;;2.30;2.00;;;11.20;91.40;;;11.75;62.41;97691.19;4845338;28;118548;-88
2021/12/24 12:36:04;;;;;;;1.60;1.50;;;11.20;91.40;;;11.77;62.23;97691.66;4870812;28;119047;-88
2021/12/24 12:38:40;;;;;;;1.70;1.33;;;11.30;91.40;;;11.79;61.92;97694.06;4852852;28;124336;-88
2021/12/24 12:41:34;;;;;;;6.70;1.80;;;11.30;91.40;;;11.78;61.84;97690.47;4846784;28;123601;-88
2021/12/24 12:44:15;;;;;;;1.40;1.30;;;11.30;91.30;;;11.79;62.29;97686.53;4868119;28;120005;-88
2021/12/24 12:46:43;;;;;;;2.00;1.50;;;11.30;91.30;;;11.79;62.17;97675.47;4865771;28;118706;-88
2021/12/24 12:49:16;;;;;;;2.27;1.50;;;11.30;91.30;;;11.80;61.87;97674.34;4856841;28;123079;-87
2021/12/24 12:51:54;;;;;;;1.87;1.40;;;11.30;91.30;;;11.83;61.96;97662.56;4855193;28;123971;-88
2021/12/24 12:54:32;;;;;;;1.40;1.30;;;11.40;91.30;;;11.85;62.18;97678.84;4847278;28;117881;-88
2021/12/24 12:57:20;;;;;;;1.27;1.10;;;11.40;91.30;;;11.83;62.23;97670.06;4855057;28;119003;-88
2021/12/24 13:00:20;;;;;;;2.20;1.50;;;11.40;91.30;;;11.83;62.16;97681.16;4863358;28;123575;-87
2021/12/24 13:03:07;;;;;;;1.60;1.27;;;11.40;91.30;;;11.83;62.00;97667.31;4835142;28;122804;-88
2021/12/24 13:06:08;;;;;;;1.30;1.20;;;11.40;91.40;;;11.84;62.20;97655.06;4873046;28;120374;-87
2021/12/24 13:08:37;;;;;;;1.53;1.10;;;11.40;91.40;;;11.84;62.39;97655.88;4880232;28;120131;-87